createdAt,value
2023-02-17T00:01:36.774Z,21.87
2023-02-17T00:04:06.509Z,22.30
2023-02-17T00:06:34.803Z,23.03
2023-02-17T00:09:03.349Z,22.60
2023-02-17T00:11:31.741Z,20.53
2023-02-17T00:14:00.354Z,21.60
2023-02-17T00:16:30.379Z,20.90
2023-02-17T00:19:00.744Z,19.70
2023-02-17T00:21:32.481Z,21.50
2023-02-17T00:24:01.264Z,20.03
2023-02-17T00:26:29.802Z,21.50
2023-02-17T00:29:00.201Z,21.47
2023-02-17T00:31:28.418Z,21.17
2023-02-17T00:33:57.436Z,19.20
2023-02-17T00:36:26.708Z,19.90
2023-02-17T00:38:58.028Z,20.20
2023-02-17T00:41:27.980Z,20.63
2023-02-17T00:43:56.711Z,20.40
2023-02-17T00:46:26.041Z,19.47
2023-02-17T00:48:54.985Z,19.90
2023-02-17T00:51:23.447Z,21.30
2023-02-17T00:53:51.886Z,18.97
2023-02-17T00:56:21.944Z,22.50
2023-02-17T00:58:50.052Z,21.63
2023-02-17T01:01:18.277Z,20.63
2023-02-17T01:03:46.850Z,21.10
2023-02-17T01:06:22.718Z,19.80
2023-02-17T01:08:51.380Z,20.00
2023-02-17T01:11:22.019Z,18.90
2023-02-17T01:13:50.513Z,21.00
2023-02-17T01:16:20.166Z,20.47
2023-02-17T01:18:48.182Z,20.70
2023-02-17T01:21:20.446Z,19.37
2023-02-17T01:23:50.401Z,20.83
2023-02-17T01:26:20.145Z,19.73
2023-02-17T01:28:51.000Z,19.77
2023-02-17T01:31:19.474Z,19.50
2023-02-17T01:33:47.823Z,19.60
2023-02-17T01:36:21.107Z,20.23
2023-02-17T01:38:49.669Z,20.43
2023-02-17T01:41:20.022Z,23.67
2023-02-17T01:44:08.901Z,19.60
2023-02-17T01:46:37.946Z,21.70
2023-02-17T01:49:14.414Z,21.63
2023-02-17T01:51:43.737Z,22.50
2023-02-17T01:54:17.228Z,22.70
2023-02-17T01:56:47.750Z,21.27
2023-02-17T01:59:21.103Z,21.87
2023-02-17T02:01:51.179Z,21.07
2023-02-17T02:04:22.799Z,20.90
2023-02-17T02:06:51.099Z,23.70
2023-02-17T02:09:24.148Z,22.63
2023-02-17T02:11:52.746Z,22.30
2023-02-17T02:14:23.676Z,21.87
2023-02-17T02:16:59.448Z,23.43
2023-02-17T02:20:08.675Z,22.20
2023-02-17T02:23:07.310Z,22.73
2023-02-17T02:25:55.534Z,23.73
2023-02-17T02:28:39.235Z,24.03
2023-02-17T02:31:26.078Z,22.80
2023-02-17T02:34:00.609Z,23.40
2023-02-17T02:36:33.994Z,22.63
2023-02-17T02:39:06.701Z,23.87
2023-02-17T02:41:39.468Z,22.47
2023-02-17T02:44:10.468Z,23.50
2023-02-17T02:46:38.994Z,23.53
2023-02-17T02:49:11.127Z,25.27
2023-02-17T02:51:50.635Z,21.83
2023-02-17T02:54:43.136Z,23.17
2023-02-17T02:57:22.300Z,18.77
2023-02-17T03:00:02.747Z,21.00
2023-02-17T03:02:36.144Z,20.57
2023-02-17T03:05:12.813Z,20.63
2023-02-17T03:07:47.657Z,20.00
2023-02-17T03:10:17.229Z,14.20
2023-02-17T03:12:45.616Z,18.93
2023-02-17T03:15:21.358Z,16.20
2023-02-17T03:17:49.464Z,10.77
2023-02-17T03:20:19.697Z,14.00
2023-02-17T03:22:49.619Z,14.63
2023-02-17T03:25:20.806Z,14.50
2023-02-17T03:27:49.184Z,13.10
2023-02-17T03:30:17.711Z,13.37
2023-02-17T03:32:47.648Z,12.30
2023-02-17T03:35:15.626Z,11.77
2023-02-17T03:37:45.589Z,11.27
2023-02-17T03:40:13.650Z,10.73
2023-02-17T03:42:42.300Z,11.90
2023-02-17T03:45:11.653Z,11.07
2023-02-17T03:47:40.389Z,11.37
2023-02-17T03:50:09.418Z,9.83
2023-02-17T03:52:38.243Z,10.30
2023-02-17T03:55:08.225Z,9.40
2023-02-17T03:57:36.912Z,9.73
2023-02-17T04:00:06.556Z,10.63
2023-02-17T04:02:34.719Z,10.33
2023-02-17T04:05:02.870Z,10.10
2023-02-17T04:07:31.557Z,10.43
2023-02-17T04:09:59.535Z,12.07
2023-02-17T04:12:29.040Z,9.47
2023-02-17T04:14:57.528Z,10.97
2023-02-17T04:17:25.795Z,10.30
2023-02-17T04:19:54.018Z,10.53
2023-02-17T04:22:22.703Z,11.00
2023-02-17T04:24:51.576Z,11.57
2023-02-17T04:27:20.342Z,10.77
2023-02-17T04:29:50.558Z,10.90
2023-02-17T04:32:18.843Z,11.80
2023-02-17T04:34:47.444Z,12.40
2023-02-17T04:37:16.153Z,11.23
2023-02-17T04:39:44.342Z,11.50
2023-02-17T04:42:12.241Z,11.00
2023-02-17T04:44:41.469Z,10.67
2023-02-17T04:47:10.737Z,11.23
2023-02-17T04:49:38.746Z,12.40
2023-02-17T04:52:07.871Z,11.03
2023-02-17T04:54:36.478Z,10.77
2023-02-17T04:57:04.465Z,11.77
2023-02-17T04:59:34.053Z,11.60
2023-02-17T05:02:02.366Z,12.77
2023-02-17T05:04:32.109Z,12.90
2023-02-17T05:07:00.565Z,13.87
2023-02-17T05:09:29.026Z,11.90
2023-02-17T05:11:57.805Z,14.57
2023-02-17T05:14:28.079Z,13.80
2023-02-17T05:16:56.617Z,15.03
2023-02-17T05:19:24.726Z,15.23
2023-02-17T05:21:54.673Z,15.60
2023-02-17T05:24:22.692Z,15.10
2023-02-17T05:26:50.554Z,15.30
2023-02-17T05:29:19.346Z,16.60
2023-02-17T05:31:48.271Z,15.80
2023-02-17T05:34:16.232Z,14.53
2023-02-17T05:36:44.701Z,16.70
2023-02-17T05:39:13.989Z,14.17
2023-02-17T05:41:41.881Z,12.67
2023-02-17T05:44:10.175Z,13.00
2023-02-17T05:46:38.436Z,14.23
2023-02-17T05:49:06.507Z,14.40
2023-02-17T05:51:35.916Z,14.53
2023-02-17T05:54:04.504Z,13.50
2023-02-17T05:56:33.979Z,13.77
2023-02-17T05:59:02.664Z,13.73
2023-02-17T06:01:30.764Z,14.00
2023-02-17T06:03:58.637Z,13.50
2023-02-17T06:06:27.687Z,13.40
2023-02-17T06:08:56.399Z,13.13
2023-02-17T06:11:25.173Z,13.20
2023-02-17T06:13:55.554Z,12.77
2023-02-17T06:16:24.639Z,12.30
2023-02-17T06:18:52.690Z,12.13
2023-02-17T06:21:21.121Z,12.03
2023-02-17T06:23:49.227Z,12.67
2023-02-17T06:26:18.657Z,12.00
2023-02-17T06:28:47.304Z,14.10
2023-02-17T06:31:16.995Z,11.80
2023-02-17T06:33:45.175Z,11.07
2023-02-17T06:36:13.681Z,13.53
2023-02-17T06:38:42.364Z,13.10
2023-02-17T06:41:10.729Z,12.90
2023-02-17T06:43:39.241Z,13.07
2023-02-17T06:46:07.635Z,12.33
2023-02-17T06:48:37.229Z,14.77
2023-02-17T06:51:06.387Z,12.50
2023-02-17T06:53:34.806Z,13.50
2023-02-17T06:56:02.955Z,12.37
2023-02-17T06:58:33.196Z,13.17
2023-02-17T07:01:01.422Z,15.93
2023-02-17T07:03:29.420Z,13.13
2023-02-17T07:06:00.736Z,14.80
2023-02-17T07:08:28.843Z,11.40
2023-02-17T07:10:57.012Z,11.97
2023-02-17T07:13:25.451Z,10.90
2023-02-17T07:15:53.720Z,11.90
2023-02-17T07:18:21.786Z,11.73
2023-02-17T07:20:50.546Z,12.53
2023-02-17T07:23:20.461Z,12.03
2023-02-17T07:25:48.687Z,10.93
2023-02-17T07:28:17.344Z,10.83
2023-02-17T07:30:45.827Z,11.70
2023-02-17T07:33:14.264Z,12.83
2023-02-17T07:35:44.483Z,10.87
2023-02-17T07:38:13.906Z,10.67
2023-02-17T07:40:43.842Z,11.23
2023-02-17T07:43:12.522Z,10.70
2023-02-17T07:45:40.912Z,10.93
2023-02-17T07:48:09.096Z,12.23
2023-02-17T07:50:37.639Z,11.03
2023-02-17T07:53:05.977Z,11.00
2023-02-17T07:55:34.384Z,12.33
2023-02-17T07:58:04.607Z,10.97
2023-02-17T08:00:32.853Z,10.97
2023-02-17T08:03:01.110Z,9.63
2023-02-17T08:05:30.048Z,9.90
2023-02-17T08:08:12.153Z,10.10
2023-02-17T08:10:58.345Z,8.80
2023-02-17T08:13:30.006Z,8.60
2023-02-17T08:15:59.843Z,8.23
2023-02-17T08:18:30.592Z,8.63
2023-02-17T08:21:01.138Z,8.70
2023-02-17T08:23:30.475Z,8.70
2023-02-17T08:25:59.956Z,9.13
2023-02-17T08:28:33.144Z,8.70
2023-02-17T08:31:03.095Z,8.93
2023-02-17T08:33:31.526Z,8.13
2023-02-17T08:36:00.168Z,6.93
2023-02-17T08:38:28.410Z,8.40
2023-02-17T08:40:56.933Z,9.60
2023-02-17T08:43:27.562Z,6.93
2023-02-17T08:45:57.066Z,8.13
2023-02-17T08:48:25.687Z,8.30
2023-02-17T08:50:54.304Z,7.97
2023-02-17T08:53:22.413Z,7.47
2023-02-17T08:55:50.514Z,6.90
2023-02-17T08:58:19.177Z,7.97
2023-02-17T09:00:47.231Z,6.13
2023-02-17T09:03:16.880Z,7.67
2023-02-17T09:05:45.387Z,8.27
2023-02-17T09:08:13.376Z,8.10
2023-02-17T09:10:41.316Z,6.43
2023-02-17T09:13:09.795Z,7.10
2023-02-17T09:15:38.137Z,8.10
2023-02-17T09:18:06.714Z,7.53
2023-02-17T09:20:37.384Z,8.70
2023-02-17T09:23:08.505Z,9.43
2023-02-17T09:25:36.703Z,6.50
2023-02-17T09:28:05.790Z,6.93
2023-02-17T09:30:34.437Z,7.60
2023-02-17T09:33:02.857Z,7.70
2023-02-17T09:35:32.109Z,6.97
2023-02-17T09:38:01.456Z,7.60
2023-02-17T09:40:44.641Z,7.20
2023-02-17T09:43:16.839Z,6.63
2023-02-17T09:45:51.659Z,7.10
2023-02-17T09:48:23.124Z,7.23
2023-02-17T09:50:57.304Z,7.90
2023-02-17T09:53:33.307Z,7.70
2023-02-17T09:56:06.847Z,7.30
2023-02-17T09:58:39.776Z,7.47
2023-02-17T10:01:12.762Z,8.97
2023-02-17T10:03:44.534Z,7.83
2023-02-17T10:06:16.826Z,7.00
2023-02-17T10:08:54.089Z,9.10
2023-02-17T10:11:29.465Z,7.90
2023-02-17T10:14:01.605Z,9.10
2023-02-17T10:16:34.743Z,8.20
2023-02-17T10:19:09.383Z,8.20
2023-02-17T10:21:42.809Z,8.67
2023-02-17T10:24:12.863Z,8.73
2023-02-17T10:26:54.102Z,8.53
2023-02-17T10:29:35.282Z,8.57
2023-02-17T10:32:19.806Z,7.90
2023-02-17T10:34:59.600Z,9.00
2023-02-17T10:37:38.902Z,8.47
2023-02-17T10:40:15.848Z,7.90
2023-02-17T10:42:44.438Z,9.30
2023-02-17T10:45:21.258Z,7.90
2023-02-17T10:47:50.145Z,8.83
2023-02-17T10:50:22.303Z,7.67
2023-02-17T10:52:52.670Z,8.40
2023-02-17T10:55:27.303Z,7.90
2023-02-17T10:58:00.946Z,7.67
2023-02-17T11:00:29.493Z,8.23
2023-02-17T11:02:57.685Z,8.77
2023-02-17T11:05:27.633Z,7.60
2023-02-17T11:08:01.737Z,8.37
2023-02-17T11:10:35.327Z,8.50
2023-02-17T11:13:06.488Z,8.60
2023-02-17T11:15:45.165Z,7.90
2023-02-17T11:18:21.942Z,8.73
2023-02-17T11:20:50.718Z,9.23
2023-02-17T11:23:28.003Z,9.27
2023-02-17T11:26:05.134Z,8.80
2023-02-17T11:28:33.520Z,10.60
2023-02-17T11:31:05.302Z,9.10
2023-02-17T11:33:36.816Z,10.20
2023-02-17T11:36:07.417Z,9.10
2023-02-17T11:38:44.776Z,8.90
2023-02-17T11:41:14.730Z,10.60
2023-02-17T11:43:53.866Z,8.70
2023-02-17T11:46:29.633Z,9.20
2023-02-17T11:49:33.326Z,9.67
2023-02-17T11:52:13.749Z,8.10
2023-02-17T11:54:57.990Z,11.27
2023-02-17T11:57:38.555Z,9.50
2023-02-17T12:00:19.356Z,9.20
2023-02-17T12:03:22.386Z,10.57
2023-02-17T12:06:02.961Z,9.40
2023-02-17T12:08:41.410Z,10.60
2023-02-17T12:11:19.561Z,10.30
2023-02-17T12:14:00.861Z,8.57
2023-02-17T12:16:40.002Z,9.40
2023-02-17T12:19:36.083Z,8.80
2023-02-17T12:22:17.391Z,9.10
2023-02-17T12:25:22.273Z,8.23
2023-02-17T12:28:01.529Z,9.37
2023-02-17T12:30:47.713Z,9.40
2023-02-17T12:33:35.994Z,8.53
2023-02-17T12:36:09.234Z,7.87
2023-02-17T12:38:42.879Z,8.30
2023-02-17T12:41:15.977Z,8.33
2023-02-17T12:43:49.370Z,7.20
2023-02-17T12:46:25.684Z,5.97
2023-02-17T12:48:58.577Z,6.07
2023-02-17T12:51:31.701Z,6.03
2023-02-17T12:54:06.120Z,5.93
2023-02-17T12:57:15.019Z,8.30
2023-02-17T12:59:45.365Z,6.70
2023-02-17T13:02:16.930Z,6.43
2023-02-17T13:04:47.222Z,6.53
2023-02-17T13:07:30.364Z,7.27
2023-02-17T13:09:59.605Z,6.80
2023-02-17T13:12:42.080Z,7.23
2023-02-17T13:15:29.939Z,6.80
2023-02-17T13:18:03.136Z,7.80
2023-02-17T13:20:56.974Z,7.30
2023-02-17T13:23:38.457Z,7.50
2023-02-17T13:26:31.942Z,6.40
2023-02-17T13:29:37.927Z,6.70
2023-02-17T13:32:08.925Z,6.20
2023-02-17T13:34:42.826Z,6.63
2023-02-17T13:37:20.690Z,6.67
2023-02-17T13:39:49.202Z,6.80
2023-02-17T13:42:40.150Z,6.93
2023-02-17T13:45:25.787Z,6.07
2023-02-17T13:47:55.916Z,5.73
2023-02-17T13:50:34.858Z,5.67
2023-02-17T13:53:07.610Z,6.30
2023-02-17T13:55:37.145Z,5.53
2023-02-17T13:58:05.440Z,6.47
2023-02-17T14:00:33.808Z,6.60
2023-02-17T14:03:13.197Z,5.57
2023-02-17T14:05:46.126Z,5.37
2023-02-17T14:08:20.666Z,5.70
2023-02-17T14:10:49.333Z,5.50
2023-02-17T14:13:18.181Z,6.10
2023-02-17T14:15:56.126Z,5.63
2023-02-17T14:18:33.794Z,6.40
2023-02-17T14:21:07.810Z,5.90
2023-02-17T14:23:45.911Z,5.83
2023-02-17T14:26:27.106Z,6.80
2023-02-17T14:28:56.766Z,5.40
2023-02-17T14:31:25.608Z,5.87
2023-02-17T14:33:55.476Z,5.10
2023-02-17T14:36:34.954Z,5.37
2023-02-17T14:39:05.670Z,5.00
2023-02-17T14:41:34.502Z,5.17
2023-02-17T14:44:03.299Z,5.97
2023-02-17T14:46:31.342Z,6.23
2023-02-17T14:48:59.993Z,6.67
2023-02-17T14:51:37.354Z,6.00
2023-02-17T14:54:13.888Z,5.73
2023-02-17T14:56:45.417Z,6.93
2023-02-17T14:59:13.457Z,6.20
2023-02-17T15:01:41.591Z,5.40
2023-02-17T15:04:10.120Z,5.83
2023-02-17T15:06:43.440Z,6.40
2023-02-17T15:09:15.378Z,5.63
2023-02-17T15:11:46.397Z,5.77
2023-02-17T15:14:16.468Z,5.57
2023-02-17T15:16:44.517Z,5.50
2023-02-17T15:19:13.498Z,5.30
2023-02-17T15:21:47.449Z,4.67
2023-02-17T15:24:18.384Z,5.40
2023-02-17T15:26:46.495Z,5.23
2023-02-17T15:29:18.129Z,4.60
2023-02-17T15:31:47.412Z,5.13
2023-02-17T15:34:18.657Z,5.83
2023-02-17T15:36:48.538Z,4.77
2023-02-17T15:39:18.891Z,5.03
2023-02-17T15:41:48.433Z,4.87
2023-02-17T15:44:20.127Z,5.00
2023-02-17T15:46:51.234Z,3.87
2023-02-17T15:49:19.788Z,4.17
2023-02-17T15:51:50.514Z,4.60
2023-02-17T15:54:19.590Z,4.50
2023-02-17T15:56:51.568Z,4.53
2023-02-17T15:59:22.795Z,4.67
2023-02-17T16:01:52.644Z,3.97
2023-02-17T16:04:21.292Z,5.60
2023-02-17T16:06:50.995Z,4.90
2023-02-17T16:09:20.729Z,4.27
2023-02-17T16:11:51.174Z,5.07
2023-02-17T16:14:27.345Z,4.90
2023-02-17T16:16:56.644Z,5.20
2023-02-17T16:19:25.100Z,4.60
2023-02-17T16:21:55.221Z,4.73
2023-02-17T16:24:23.635Z,4.23
2023-02-17T16:26:51.886Z,4.73
2023-02-17T16:29:23.623Z,5.20
2023-02-17T16:31:52.411Z,4.80
2023-02-17T16:34:23.349Z,5.40
2023-02-17T16:36:53.320Z,5.20
2023-02-17T16:39:24.036Z,4.77
2023-02-17T16:41:52.643Z,5.33
2023-02-17T16:44:23.184Z,5.00
2023-02-17T16:46:53.530Z,4.57
2023-02-17T16:49:25.985Z,5.00
2023-02-17T16:51:54.562Z,4.70
2023-02-17T16:54:24.234Z,4.53
2023-02-17T16:56:53.636Z,4.50
2023-02-17T16:59:23.638Z,4.97
2023-02-17T17:01:53.210Z,5.00
2023-02-17T17:04:25.130Z,4.57
2023-02-17T17:06:53.773Z,4.70
2023-02-17T17:09:26.003Z,4.80
2023-02-17T17:11:54.021Z,5.60
2023-02-17T17:14:22.313Z,4.37
2023-02-17T17:16:58.373Z,4.63
2023-02-17T17:19:26.430Z,4.30
2023-02-17T17:21:55.133Z,3.70
2023-02-17T17:24:25.514Z,4.03
2023-02-17T17:26:53.796Z,4.53
2023-02-17T17:29:23.268Z,3.80
2023-02-17T17:31:52.012Z,5.80
2023-02-17T17:34:20.414Z,4.40
2023-02-17T17:36:49.775Z,4.30
2023-02-17T17:39:20.823Z,5.47
2023-02-17T17:41:51.470Z,5.20
2023-02-17T17:44:21.011Z,4.23
2023-02-17T17:46:49.664Z,4.93
2023-02-17T17:49:18.561Z,4.87
2023-02-17T17:51:47.582Z,5.10
2023-02-17T17:54:15.993Z,4.53
2023-02-17T17:56:44.988Z,4.93
2023-02-17T17:59:15.655Z,4.27
2023-02-17T18:01:45.758Z,4.47
2023-02-17T18:04:14.104Z,4.90
2023-02-17T18:06:45.612Z,5.33
2023-02-17T18:09:30.637Z,4.90
2023-02-17T18:12:02.635Z,5.07
2023-02-17T18:14:32.360Z,5.97
2023-02-17T18:17:00.725Z,5.10
2023-02-17T18:19:30.541Z,4.90
2023-02-17T18:21:59.260Z,5.23
2023-02-17T18:24:28.147Z,6.13
2023-02-17T18:26:56.489Z,5.87
2023-02-17T18:29:24.410Z,4.70
2023-02-17T18:31:53.875Z,6.17
2023-02-17T18:34:22.461Z,5.87
2023-02-17T18:36:50.574Z,6.03
2023-02-17T18:39:18.798Z,5.27
2023-02-17T18:41:47.297Z,5.30
2023-02-17T18:44:15.343Z,5.13
2023-02-17T18:46:43.395Z,5.70
2023-02-17T18:49:13.271Z,5.43
2023-02-17T18:51:41.345Z,5.30
2023-02-17T18:54:10.989Z,5.40
2023-02-17T18:56:39.214Z,5.10
2023-02-17T18:59:07.438Z,4.83
2023-02-17T19:01:39.475Z,4.27
2023-02-17T19:04:09.579Z,4.90
2023-02-17T19:06:39.305Z,5.13
2023-02-17T19:09:07.508Z,4.23
2023-02-17T19:11:36.134Z,3.63
2023-02-17T19:14:04.973Z,3.93
2023-02-17T19:16:33.797Z,3.37
2023-02-17T19:19:03.204Z,4.20
2023-02-17T19:21:31.612Z,4.10
2023-02-17T19:24:01.185Z,3.07
2023-02-17T19:26:29.934Z,3.50
2023-02-17T19:28:57.841Z,4.70
2023-02-17T19:31:25.952Z,3.70
2023-02-17T19:33:54.498Z,3.40
2023-02-17T19:36:23.953Z,3.93
2023-02-17T19:38:52.331Z,2.93
2023-02-17T19:41:23.776Z,4.83
2023-02-17T19:43:51.986Z,3.50
2023-02-17T19:46:22.965Z,3.90
2023-02-17T19:48:51.722Z,4.00
2023-02-17T19:51:20.592Z,4.33
2023-02-17T19:53:49.704Z,3.70
2023-02-17T19:56:20.866Z,3.30
2023-02-17T19:58:51.978Z,4.33
2023-02-17T20:01:21.862Z,3.60
2023-02-17T20:03:50.552Z,3.60
2023-02-17T20:06:22.241Z,3.70
2023-02-17T20:08:54.726Z,3.77
2023-02-17T20:11:24.105Z,3.23
2023-02-17T20:13:54.552Z,4.50
2023-02-17T20:16:23.027Z,3.43
2023-02-17T20:18:52.534Z,4.07
2023-02-17T20:21:23.080Z,3.80
2023-02-17T20:23:53.067Z,4.20
2023-02-17T20:26:30.471Z,4.33
2023-02-17T20:29:01.807Z,4.53
2023-02-17T20:31:30.818Z,4.93
2023-02-17T20:34:01.523Z,4.53
2023-02-17T20:36:31.958Z,5.30
2023-02-17T20:39:00.932Z,4.90
2023-02-17T20:41:29.304Z,4.70
2023-02-17T20:44:02.072Z,4.33
2023-02-17T20:46:32.452Z,5.83
2023-02-17T20:49:01.510Z,4.63
2023-02-17T20:51:32.675Z,4.77
2023-02-17T20:54:03.304Z,5.87
2023-02-17T20:56:37.182Z,5.07
2023-02-17T20:59:08.322Z,4.97
2023-02-17T21:01:44.421Z,4.50
2023-02-17T21:04:17.419Z,5.30
2023-02-17T21:06:48.338Z,4.13
2023-02-17T21:09:18.654Z,5.10
2023-02-17T21:11:47.843Z,4.80
2023-02-17T21:14:32.101Z,5.20
2023-02-17T21:17:02.052Z,5.07
2023-02-17T21:19:33.484Z,4.80
2023-02-17T21:22:01.949Z,5.37
2023-02-17T21:24:30.288Z,4.30
2023-02-17T21:26:59.360Z,5.10
2023-02-17T21:29:27.782Z,4.90
2023-02-17T21:31:56.422Z,5.43
2023-02-17T21:34:26.923Z,4.30
2023-02-17T21:36:54.916Z,5.57
2023-02-17T21:39:23.586Z,4.97
2023-02-17T21:41:54.384Z,4.83
2023-02-17T21:44:40.087Z,5.40
2023-02-17T21:47:08.805Z,4.90
2023-02-17T21:49:38.446Z,5.40
2023-02-17T21:52:07.925Z,6.27
2023-02-17T21:54:36.413Z,5.90
2023-02-17T21:57:04.599Z,6.93
2023-02-17T21:59:33.190Z,6.20
2023-02-17T22:02:02.319Z,5.97
2023-02-17T22:04:30.333Z,5.90
2023-02-17T22:07:02.391Z,6.70
2023-02-17T22:09:30.483Z,6.53
2023-02-17T22:11:58.269Z,6.60
2023-02-17T22:14:26.659Z,6.87
2023-02-17T22:16:55.278Z,6.20
2023-02-17T22:19:31.359Z,7.60
2023-02-17T22:22:00.869Z,7.37
2023-02-17T22:24:29.609Z,6.97
2023-02-17T22:26:57.576Z,7.50
2023-02-17T22:29:26.368Z,6.97
2023-02-17T22:31:57.963Z,7.00
2023-02-17T22:34:27.574Z,7.80
2023-02-17T22:36:55.813Z,7.47
2023-02-17T22:39:26.033Z,6.73
2023-02-17T22:41:54.120Z,7.03
2023-02-17T22:44:22.012Z,7.20
2023-02-17T22:46:52.957Z,7.30
2023-02-17T22:49:21.289Z,5.60
2023-02-17T22:51:49.557Z,5.47
2023-02-17T22:54:18.077Z,7.57
2023-02-17T22:56:47.475Z,7.60
2023-02-17T22:59:15.335Z,6.20
2023-02-17T23:01:44.031Z,6.10
2023-02-17T23:04:14.209Z,6.07
2023-02-17T23:06:42.772Z,5.73
2023-02-17T23:09:16.993Z,5.50
2023-02-17T23:11:51.146Z,5.10
2023-02-17T23:14:22.872Z,5.60
2023-02-17T23:16:51.109Z,5.57
2023-02-17T23:19:21.551Z,5.37
2023-02-17T23:21:52.710Z,5.50
2023-02-17T23:24:22.867Z,5.63
2023-02-17T23:26:51.906Z,5.70
2023-02-17T23:29:21.809Z,5.30
2023-02-17T23:31:50.179Z,5.13
2023-02-17T23:34:18.435Z,4.73
2023-02-17T23:36:48.157Z,5.33
2023-02-17T23:39:17.258Z,4.67
2023-02-17T23:41:45.415Z,4.37
2023-02-17T23:44:14.869Z,3.83
2023-02-17T23:46:45.761Z,3.60
2023-02-17T23:49:16.467Z,2.83
2023-02-17T23:51:45.134Z,3.83
2023-02-17T23:54:13.450Z,2.77
2023-02-17T23:56:41.874Z,3.27
2023-02-17T23:59:09.968Z,2.90
